createdAt,value
2023-01-13T00:00:00.076Z,10.26
2023-01-13T00:03:02.695Z,10.24
2023-01-13T00:06:06.817Z,10.20
2023-01-13T00:09:10.793Z,10.19
2023-01-13T00:12:13.470Z,10.22
2023-01-13T00:15:16.366Z,10.22
2023-01-13T00:18:18.991Z,10.22
2023-01-13T00:21:23.651Z,10.23
2023-01-13T00:24:27.802Z,10.21
2023-01-13T00:27:30.592Z,10.21
2023-01-13T00:30:34.101Z,10.14
2023-01-13T00:33:37.575Z,9.92
2023-01-13T00:36:40.200Z,9.73
2023-01-13T00:39:44.243Z,9.74
2023-01-13T00:43:12.742Z,9.58
2023-01-13T00:46:17.274Z,9.48
2023-01-13T00:49:19.963Z,9.36
2023-01-13T00:52:22.602Z,9.25
2023-01-13T00:55:26.574Z,9.19
2023-01-13T00:58:29.541Z,9.10
2023-01-13T01:01:32.251Z,9.02
2023-01-13T01:04:34.963Z,9.04
2023-01-13T01:07:37.633Z,9.02
2023-01-13T01:10:41.629Z,9.04
2023-01-13T01:13:45.108Z,9.09
2023-01-13T01:16:47.712Z,9.13
2023-01-13T01:19:50.375Z,9.17
2023-01-13T01:22:53.025Z,9.06
2023-01-13T01:26:01.217Z,9.09
2023-01-13T01:29:03.977Z,9.12
2023-01-13T01:32:07.231Z,9.31
2023-01-13T01:35:10.112Z,9.33
2023-01-13T01:38:12.730Z,9.25
2023-01-13T01:41:19.369Z,9.21
2023-01-13T01:44:50.740Z,9.20
2023-01-13T01:47:58.362Z,9.15
2023-01-13T01:51:01.354Z,9.26
2023-01-13T01:54:08.657Z,9.33
2023-01-13T01:57:19.131Z,9.31
2023-01-13T02:00:22.157Z,9.22
2023-01-13T02:03:25.154Z,9.25
2023-01-13T02:06:29.023Z,9.30
2023-01-13T02:09:32.175Z,9.18
2023-01-13T02:12:37.356Z,9.21
2023-01-13T02:15:44.979Z,9.14
2023-01-13T02:18:57.060Z,9.03
2023-01-13T02:22:23.580Z,8.90
2023-01-13T02:25:47.740Z,8.92
2023-01-13T02:29:26.764Z,8.98
2023-01-13T02:32:36.813Z,9.10
2023-01-13T02:35:43.749Z,9.07
2023-01-13T02:38:52.460Z,9.14
2023-01-13T02:42:19.402Z,9.10
2023-01-13T02:45:26.971Z,9.04
2023-01-13T02:48:32.411Z,9.19
2023-01-13T02:51:36.445Z,9.03
2023-01-13T02:54:43.005Z,9.10
2023-01-13T02:57:48.770Z,9.04
2023-01-13T03:00:51.736Z,8.94
2023-01-13T03:03:55.785Z,8.99
2023-01-13T03:07:07.524Z,8.93
2023-01-13T03:10:15.132Z,8.92
2023-01-13T03:13:32.652Z,8.87
2023-01-13T03:16:55.447Z,8.75
2023-01-13T03:20:06.099Z,8.85
2023-01-13T03:23:16.471Z,8.92
2023-01-13T03:26:27.299Z,8.85
2023-01-13T03:29:36.011Z,8.82
2023-01-13T03:32:43.335Z,8.74
2023-01-13T03:35:52.003Z,8.77
2023-01-13T03:38:58.413Z,8.76
2023-01-13T03:42:05.466Z,8.83
2023-01-13T03:45:12.506Z,8.70
2023-01-13T03:48:20.077Z,8.53
2023-01-13T03:51:29.487Z,8.40
2023-01-13T03:54:37.369Z,8.52
2023-01-13T03:57:47.635Z,8.60
2023-01-13T04:00:59.044Z,8.68
2023-01-13T04:04:05.117Z,8.58
2023-01-13T04:07:17.008Z,8.42
2023-01-13T04:10:24.496Z,8.38
2023-01-13T04:13:31.204Z,8.36
2023-01-13T04:16:35.695Z,8.47
2023-01-13T04:19:40.087Z,8.22
2023-01-13T04:22:44.065Z,8.26
2023-01-13T04:25:47.547Z,8.25
2023-01-13T04:28:51.840Z,8.43
2023-01-13T04:31:54.736Z,8.18
2023-01-13T04:34:57.421Z,8.07
2023-01-13T04:38:03.387Z,8.22
2023-01-13T04:41:06.160Z,7.99
2023-01-13T04:44:08.885Z,8.03
2023-01-13T04:47:11.472Z,8.04
2023-01-13T04:50:14.046Z,7.98
2023-01-13T04:53:18.001Z,8.10
2023-01-13T04:56:20.583Z,7.99
2023-01-13T04:59:23.170Z,8.09
2023-01-13T05:02:25.802Z,8.10
2023-01-13T05:05:29.400Z,8.04
2023-01-13T05:08:33.336Z,8.06
2023-01-13T05:11:53.367Z,7.80
2023-01-13T05:15:13.813Z,7.97
2023-01-13T05:18:17.320Z,7.88
2023-01-13T05:21:33.841Z,7.89
2023-01-13T05:24:55.427Z,7.84
2023-01-13T05:28:00.455Z,7.83
2023-01-13T05:31:03.360Z,7.97
2023-01-13T05:34:05.948Z,7.70
2023-01-13T05:37:10.981Z,7.72
2023-01-13T05:40:35.082Z,7.90
2023-01-13T05:43:37.675Z,7.83
2023-01-13T05:46:41.777Z,7.96
2023-01-13T05:49:44.379Z,7.72
2023-01-13T05:52:47.070Z,7.65
2023-01-13T05:55:51.713Z,7.77
2023-01-13T05:58:54.299Z,7.81
2023-01-13T06:01:56.862Z,7.84
2023-01-13T06:04:59.464Z,8.01
2023-01-13T06:08:03.716Z,7.93
2023-01-13T06:11:07.829Z,7.86
2023-01-13T06:14:10.551Z,7.81
2023-01-13T06:17:14.976Z,7.84
2023-01-13T06:20:18.430Z,7.87
2023-01-13T06:23:21.091Z,8.08
2023-01-13T06:26:26.779Z,7.92
2023-01-13T06:29:29.352Z,7.89
2023-01-13T06:32:38.697Z,8.17
2023-01-13T06:35:45.454Z,7.84
2023-01-13T06:38:52.290Z,7.74
2023-01-13T06:42:13.760Z,7.90
2023-01-13T06:45:16.441Z,7.78
2023-01-13T06:48:19.797Z,8.02
2023-01-13T06:51:22.367Z,7.72
2023-01-13T06:54:27.607Z,7.98
2023-01-13T06:57:31.664Z,7.89
2023-01-13T07:00:36.363Z,7.99
2023-01-13T07:03:38.993Z,7.97
2023-01-13T07:06:41.574Z,8.16
2023-01-13T07:09:44.163Z,8.04
2023-01-13T07:13:06.118Z,8.05
2023-01-13T07:16:09.887Z,8.00
2023-01-13T07:19:12.723Z,8.19
2023-01-13T07:22:15.297Z,8.31
2023-01-13T07:25:17.898Z,8.15
2023-01-13T07:28:21.848Z,8.07
2023-01-13T07:31:26.068Z,7.98
2023-01-13T07:34:28.720Z,7.91
2023-01-13T07:37:31.387Z,8.08
2023-01-13T07:40:33.984Z,7.95
2023-01-13T07:43:36.939Z,7.86
2023-01-13T07:46:39.766Z,8.04
2023-01-13T07:49:42.353Z,8.02
2023-01-13T07:52:44.957Z,7.93
2023-01-13T07:55:47.555Z,7.95
2023-01-13T07:58:52.904Z,7.87
2023-01-13T08:01:55.594Z,7.97
2023-01-13T08:04:58.422Z,7.99
2023-01-13T08:08:02.079Z,8.11
2023-01-13T08:11:06.817Z,8.28
2023-01-13T08:14:10.736Z,8.12
2023-01-13T08:17:13.359Z,8.08
2023-01-13T08:20:16.265Z,8.16
2023-01-13T08:23:19.245Z,8.11
2023-01-13T08:26:22.394Z,8.18
2023-01-13T08:29:26.357Z,8.29
2023-01-13T08:32:28.992Z,8.29
2023-01-13T08:35:31.668Z,8.17
2023-01-13T08:38:35.500Z,8.37
2023-01-13T08:41:56.098Z,8.21
2023-01-13T08:45:00.127Z,8.35
2023-01-13T08:48:03.105Z,8.38
2023-01-13T08:51:07.862Z,8.38
2023-01-13T08:54:10.672Z,8.56
2023-01-13T08:57:13.783Z,8.56
2023-01-13T09:00:18.671Z,8.48
2023-01-13T09:03:21.268Z,8.38
2023-01-13T09:06:23.916Z,8.47
2023-01-13T09:09:27.656Z,8.43
2023-01-13T09:12:48.133Z,8.38
2023-01-13T09:15:55.866Z,8.62
2023-01-13T09:18:58.486Z,8.58
2023-01-13T09:22:01.165Z,8.61
2023-01-13T09:25:04.116Z,8.62
2023-01-13T09:28:08.100Z,8.58
2023-01-13T09:31:12.194Z,8.63
2023-01-13T09:34:34.825Z,8.74
2023-01-13T09:37:39.230Z,8.85
2023-01-13T09:40:43.684Z,8.67
2023-01-13T09:43:57.573Z,8.70
2023-01-13T09:47:05.852Z,8.68
2023-01-13T09:50:21.100Z,8.63
2023-01-13T09:53:30.002Z,8.78
2023-01-13T09:56:32.616Z,8.85
2023-01-13T09:59:36.772Z,9.07
2023-01-13T10:03:07.128Z,9.02
2023-01-13T10:06:16.019Z,9.12
2023-01-13T10:09:23.796Z,9.15
2023-01-13T10:12:45.539Z,9.31
2023-01-13T10:15:57.418Z,9.30
2023-01-13T10:19:09.683Z,9.34
2023-01-13T10:22:22.825Z,9.13
2023-01-13T10:25:32.569Z,9.18
2023-01-13T10:28:35.227Z,9.05
2023-01-13T10:31:37.817Z,8.94
2023-01-13T10:34:49.551Z,8.96
2023-01-13T10:37:58.287Z,8.95
2023-01-13T10:41:03.281Z,8.97
2023-01-13T10:44:15.923Z,9.02
2023-01-13T10:47:24.937Z,8.94
2023-01-13T10:50:31.499Z,8.94
2023-01-13T10:53:34.116Z,9.00
2023-01-13T10:56:36.691Z,9.03
2023-01-13T10:59:39.312Z,9.06
2023-01-13T11:02:42.053Z,9.09
2023-01-13T11:05:54.553Z,9.14
2023-01-13T11:08:59.212Z,9.01
2023-01-13T11:12:02.986Z,9.00
2023-01-13T11:15:10.383Z,8.95
2023-01-13T11:18:22.750Z,8.76
2023-01-13T11:21:34.515Z,8.76
2023-01-13T11:24:41.468Z,8.72
2023-01-13T11:27:48.615Z,8.79
2023-01-13T11:30:57.828Z,8.76
2023-01-13T11:34:04.734Z,8.64
2023-01-13T11:37:15.555Z,8.43
2023-01-13T11:40:26.723Z,8.53
2023-01-13T11:43:36.163Z,8.29
2023-01-13T11:46:39.687Z,8.37
2023-01-13T11:49:45.264Z,8.16
2023-01-13T11:53:05.320Z,8.13
2023-01-13T11:56:24.237Z,8.20
2023-01-13T11:59:54.168Z,8.43
2023-01-13T12:03:10.077Z,8.53
2023-01-13T12:06:22.513Z,8.65
2023-01-13T12:09:37.516Z,8.54
2023-01-13T12:12:49.616Z,8.62
2023-01-13T12:16:10.172Z,8.64
2023-01-13T12:19:27.952Z,8.48
2023-01-13T12:22:35.985Z,8.42
2023-01-13T12:25:44.992Z,8.41
2023-01-13T12:28:52.782Z,8.48
2023-01-13T12:31:56.163Z,8.17
2023-01-13T12:35:09.326Z,8.42
2023-01-13T12:38:21.109Z,8.37
2023-01-13T12:41:59.227Z,8.51
2023-01-13T12:45:24.673Z,8.73
2023-01-13T12:48:49.007Z,8.69
2023-01-13T12:52:10.422Z,8.50
2023-01-13T12:55:21.315Z,8.48
2023-01-13T12:58:29.537Z,8.44
2023-01-13T13:01:36.844Z,8.52
2023-01-13T13:04:44.982Z,8.59
2023-01-13T13:07:50.124Z,8.41
2023-01-13T13:11:38.951Z,8.40
2023-01-13T13:15:05.030Z,8.40
2023-01-13T13:18:25.054Z,8.46
2023-01-13T13:22:08.077Z,8.53
2023-01-13T13:25:27.157Z,8.46
2023-01-13T13:28:35.298Z,8.47
2023-01-13T13:31:57.564Z,8.37
2023-01-13T13:35:15.161Z,8.28
2023-01-13T13:38:50.052Z,8.45
2023-01-13T13:42:17.384Z,8.35
2023-01-13T13:45:40.467Z,8.24
2023-01-13T13:48:53.952Z,8.28
2023-01-13T13:52:02.804Z,8.36
2023-01-13T13:55:11.941Z,8.40
2023-01-13T13:58:18.815Z,8.39
2023-01-13T14:01:25.754Z,8.46
2023-01-13T14:04:31.547Z,8.43
2023-01-13T14:07:43.786Z,8.52
2023-01-13T14:10:47.227Z,8.56
2023-01-13T14:14:02.166Z,8.54
2023-01-13T14:17:05.946Z,8.24
2023-01-13T14:20:18.504Z,8.39
2023-01-13T14:23:25.936Z,8.36
2023-01-13T14:26:31.721Z,8.25
2023-01-13T14:29:34.331Z,8.33
2023-01-13T14:32:38.388Z,8.33
2023-01-13T14:36:13.024Z,8.41
2023-01-13T14:39:34.248Z,8.45
2023-01-13T14:42:36.882Z,8.29
2023-01-13T14:45:39.863Z,8.23
2023-01-13T14:48:47.014Z,8.28
2023-01-13T14:51:51.592Z,8.25
2023-01-13T14:54:55.838Z,8.12
2023-01-13T14:58:28.314Z,8.28
2023-01-13T15:01:36.709Z,8.28
2023-01-13T15:04:39.580Z,8.24
2023-01-13T15:07:50.983Z,8.21
2023-01-13T15:10:59.697Z,8.29
2023-01-13T15:14:02.588Z,8.40
2023-01-13T15:17:15.552Z,8.43
2023-01-13T15:20:20.454Z,8.33
2023-01-13T15:23:24.599Z,8.35
2023-01-13T15:26:29.061Z,8.44
2023-01-13T15:29:31.687Z,8.41
2023-01-13T15:32:34.304Z,8.41
2023-01-13T15:35:38.477Z,8.22
2023-01-13T15:38:42.426Z,8.22
2023-01-13T15:42:02.795Z,8.16
2023-01-13T15:45:23.540Z,8.09
2023-01-13T15:48:27.881Z,8.14
2023-01-13T15:51:30.456Z,7.99
2023-01-13T15:54:34.398Z,7.94
2023-01-13T15:57:40.314Z,7.85
2023-01-13T16:00:43.652Z,7.74
2023-01-13T16:03:46.244Z,7.54
2023-01-13T16:06:48.905Z,7.54
2023-01-13T16:09:53.240Z,7.60
2023-01-13T16:12:56.706Z,7.73
2023-01-13T16:16:00.272Z,7.78
2023-01-13T16:19:02.960Z,7.60
2023-01-13T16:22:05.582Z,7.81
2023-01-13T16:25:15.950Z,7.75
2023-01-13T16:28:21.539Z,7.57
2023-01-13T16:31:26.682Z,7.67
2023-01-13T16:34:29.304Z,7.71
2023-01-13T16:37:31.877Z,7.62
2023-01-13T16:40:37.463Z,7.70
2023-01-13T16:43:40.293Z,7.79
2023-01-13T16:46:44.463Z,7.61
2023-01-13T16:49:47.628Z,7.69
2023-01-13T16:52:50.266Z,7.61
2023-01-13T16:55:54.221Z,7.61
2023-01-13T16:58:59.041Z,7.64
2023-01-13T17:02:01.977Z,7.46
2023-01-13T17:05:04.985Z,7.48
2023-01-13T17:08:07.683Z,7.55
2023-01-13T17:11:12.269Z,7.53
2023-01-13T17:14:17.768Z,7.37
2023-01-13T17:17:23.695Z,7.38
2023-01-13T17:20:26.320Z,7.46
2023-01-13T17:23:29.770Z,7.43
2023-01-13T17:26:37.129Z,7.51
2023-01-13T17:29:40.029Z,7.27
2023-01-13T17:32:42.722Z,7.29
2023-01-13T17:35:45.977Z,7.25
2023-01-13T17:38:48.596Z,7.24
2023-01-13T17:41:53.415Z,7.35
2023-01-13T17:44:56.378Z,7.24
2023-01-13T17:47:59.456Z,7.20
2023-01-13T17:51:03.331Z,7.14
2023-01-13T17:54:06.048Z,7.17
2023-01-13T17:57:10.387Z,7.17
2023-01-13T18:00:13.954Z,7.28
2023-01-13T18:03:17.098Z,7.42
2023-01-13T18:06:22.548Z,7.36
2023-01-13T18:09:26.216Z,7.37
2023-01-13T18:12:30.214Z,7.44
2023-01-13T18:15:33.006Z,7.39
2023-01-13T18:18:35.732Z,7.35
2023-01-13T18:21:56.098Z,7.47
2023-01-13T18:25:16.397Z,7.44
2023-01-13T18:28:20.380Z,7.29
2023-01-13T18:31:22.954Z,7.19
2023-01-13T18:34:25.830Z,7.30
2023-01-13T18:37:28.761Z,7.21
2023-01-13T18:40:31.327Z,7.05
2023-01-13T18:43:34.294Z,7.13
2023-01-13T18:46:36.937Z,7.04
2023-01-13T18:49:39.495Z,7.14
2023-01-13T18:52:42.130Z,7.05
2023-01-13T18:55:44.699Z,7.00
2023-01-13T18:58:51.798Z,6.97
2023-01-13T19:01:54.448Z,6.91
2023-01-13T19:04:57.611Z,6.89
2023-01-13T19:08:00.886Z,6.88
2023-01-13T19:11:07.238Z,6.91
2023-01-13T19:14:11.177Z,6.86
2023-01-13T19:17:15.651Z,6.82
2023-01-13T19:20:19.807Z,6.96
2023-01-13T19:23:22.397Z,6.91
2023-01-13T19:26:24.955Z,6.97
2023-01-13T19:29:32.615Z,6.94
2023-01-13T19:32:36.371Z,6.95
2023-01-13T19:35:38.985Z,6.94
2023-01-13T19:38:41.695Z,6.93
2023-01-13T19:42:01.963Z,6.85
2023-01-13T19:45:24.279Z,6.81
2023-01-13T19:48:26.834Z,6.81
2023-01-13T19:51:29.415Z,6.86
2023-01-13T19:54:32.013Z,6.89
2023-01-13T19:57:34.671Z,6.91
2023-01-13T20:00:46.666Z,6.98
2023-01-13T20:03:50.361Z,6.90
2023-01-13T20:06:52.922Z,6.89
2023-01-13T20:09:56.690Z,6.96
2023-01-13T20:12:59.718Z,6.87
2023-01-13T20:16:05.764Z,6.85
2023-01-13T20:19:08.429Z,6.87
2023-01-13T20:22:11.630Z,6.78
2023-01-13T20:25:16.767Z,6.86
2023-01-13T20:28:19.909Z,6.76
2023-01-13T20:31:23.854Z,6.90
2023-01-13T20:34:27.087Z,7.01
2023-01-13T20:37:29.641Z,6.98
2023-01-13T20:40:32.261Z,6.81
2023-01-13T20:43:34.865Z,6.93
2023-01-13T20:46:38.788Z,6.95
2023-01-13T20:49:41.384Z,6.96
2023-01-13T20:52:44.450Z,6.89
2023-01-13T20:55:47.056Z,6.98
2023-01-13T20:58:49.642Z,7.03
2023-01-13T21:01:53.567Z,7.19
2023-01-13T21:04:56.149Z,7.06
2023-01-13T21:07:58.750Z,6.92
2023-01-13T21:11:04.417Z,7.02
2023-01-13T21:14:25.180Z,6.96
2023-01-13T21:17:48.863Z,7.15
2023-01-13T21:21:11.239Z,7.09
2023-01-13T21:24:14.039Z,7.05
2023-01-13T21:27:16.782Z,7.16
2023-01-13T21:30:19.415Z,7.04
2023-01-13T21:33:23.363Z,7.08
2023-01-13T21:36:27.662Z,7.10
2023-01-13T21:39:30.288Z,6.99
2023-01-13T21:42:50.443Z,7.05
2023-01-13T21:46:10.816Z,7.02
2023-01-13T21:49:14.799Z,7.05
2023-01-13T21:52:17.504Z,6.95
2023-01-13T21:55:25.001Z,7.03
2023-01-13T21:58:27.602Z,7.02
2023-01-13T22:01:30.258Z,7.07
2023-01-13T22:04:34.231Z,6.98
2023-01-13T22:07:37.924Z,7.09
2023-01-13T22:10:56.903Z,7.19
2023-01-13T22:14:09.877Z,7.14
2023-01-13T22:17:15.028Z,7.18
2023-01-13T22:20:19.925Z,7.22
2023-01-13T22:23:22.492Z,7.21
2023-01-13T22:26:25.053Z,7.25
2023-01-13T22:29:27.642Z,7.33
2023-01-13T22:32:30.242Z,7.25
2023-01-13T22:35:34.177Z,7.31
2023-01-13T22:38:37.307Z,7.37
2023-01-13T22:41:39.895Z,7.21
2023-01-13T22:44:44.070Z,7.26
2023-01-13T22:47:46.751Z,7.29
2023-01-13T22:50:50.674Z,7.30
2023-01-13T22:53:53.303Z,7.28
2023-01-13T22:56:55.861Z,7.18
2023-01-13T22:59:58.530Z,7.28
2023-01-13T23:03:01.138Z,7.35
2023-01-13T23:06:05.714Z,7.23
2023-01-13T23:09:09.976Z,7.26
2023-01-13T23:12:12.572Z,7.24
2023-01-13T23:15:15.243Z,7.22
2023-01-13T23:18:17.861Z,7.13
2023-01-13T23:21:23.705Z,7.15
2023-01-13T23:24:27.853Z,7.19
2023-01-13T23:27:30.410Z,7.25
2023-01-13T23:30:33.027Z,7.20
2023-01-13T23:33:37.518Z,7.26
2023-01-13T23:36:43.259Z,7.29
2023-01-13T23:39:45.855Z,7.22
2023-01-13T23:42:48.452Z,7.25
2023-01-13T23:45:51.235Z,7.27
2023-01-13T23:48:55.241Z,7.36
2023-01-13T23:51:59.195Z,7.37
2023-01-13T23:55:02.442Z,7.37
2023-01-13T23:58:05.052Z,7.59
